sensor_id;sensor_type;location;lat;lon;timestamp;temperature;humidity
70079;DHT22;57451;52.496;13.456;2023-02-19T00:01:06;7.00;72.40
70079;DHT22;57451;52.496;13.456;2023-02-19T00:03:35;7.00;72.40
70079;DHT22;57451;52.496;13.456;2023-02-19T00:06:02;7.00;72.40
70079;DHT22;57451;52.496;13.456;2023-02-19T00:08:30;6.90;72.40
70079;DHT22;57451;52.496;13.456;2023-02-19T00:11:02;6.90;72.70
70079;DHT22;57451;52.496;13.456;2023-02-19T00:13:29;6.90;72.90
70079;DHT22;57451;52.496;13.456;2023-02-19T00:15:58;6.90;72.90
70079;DHT22;57451;52.496;13.456;2023-02-19T00:18:31;6.90;72.90
70079;DHT22;57451;52.496;13.456;2023-02-19T00:20:58;6.80;73.10
70079;DHT22;57451;52.496;13.456;2023-02-19T00:23:25;6.80;73.10
70079;DHT22;57451;52.496;13.456;2023-02-19T00:25:54;6.80;73.60
70079;DHT22;57451;52.496;13.456;2023-02-19T00:28:21;6.80;73.40
70079;DHT22;57451;52.496;13.456;2023-02-19T00:30:49;6.90;73.30
70079;DHT22;57451;52.496;13.456;2023-02-19T00:33:17;6.80;73.10
70079;DHT22;57451;52.496;13.456;2023-02-19T00:35:44;6.90;73.00
70079;DHT22;57451;52.496;13.456;2023-02-19T00:38:12;6.80;73.10
70079;DHT22;57451;52.496;13.456;2023-02-19T00:40:39;6.80;73.00
70079;DHT22;57451;52.496;13.456;2023-02-19T00:43:06;6.80;73.00
70079;DHT22;57451;52.496;13.456;2023-02-19T00:45:33;6.80;73.00
70079;DHT22;57451;52.496;13.456;2023-02-19T00:48:01;6.80;73.10
70079;DHT22;57451;52.496;13.456;2023-02-19T00:50:30;6.80;73.40
70079;DHT22;57451;52.496;13.456;2023-02-19T00:52:57;6.80;73.40
70079;DHT22;57451;52.496;13.456;2023-02-19T00:55:24;6.80;73.40
70079;DHT22;57451;52.496;13.456;2023-02-19T00:57:51;6.80;73.60
70079;DHT22;57451;52.496;13.456;2023-02-19T01:00:19;6.70;73.90
70079;DHT22;57451;52.496;13.456;2023-02-19T01:02:46;6.70;74.10
70079;DHT22;57451;52.496;13.456;2023-02-19T01:05:14;6.70;74.10
70079;DHT22;57451;52.496;13.456;2023-02-19T01:07:42;6.70;74.20
70079;DHT22;57451;52.496;13.456;2023-02-19T01:10:09;6.80;74.20
70079;DHT22;57451;52.496;13.456;2023-02-19T01:12:37;6.80;74.40
70079;DHT22;57451;52.496;13.456;2023-02-19T01:15:04;6.80;74.30
70079;DHT22;57451;52.496;13.456;2023-02-19T01:17:34;6.80;74.30
70079;DHT22;57451;52.496;13.456;2023-02-19T01:20:01;6.80;74.20
70079;DHT22;57451;52.496;13.456;2023-02-19T01:22:29;6.80;74.40
70079;DHT22;57451;52.496;13.456;2023-02-19T01:24:57;6.80;74.40
70079;DHT22;57451;52.496;13.456;2023-02-19T01:27:24;6.80;74.50
70079;DHT22;57451;52.496;13.456;2023-02-19T01:29:52;6.90;74.50
70079;DHT22;57451;52.496;13.456;2023-02-19T01:32:19;6.90;74.30
70079;DHT22;57451;52.496;13.456;2023-02-19T01:34:46;6.90;74.20
70079;DHT22;57451;52.496;13.456;2023-02-19T01:37:14;6.90;74.20
70079;DHT22;57451;52.496;13.456;2023-02-19T01:39:41;6.90;74.20
70079;DHT22;57451;52.496;13.456;2023-02-19T01:42:13;6.90;74.40
70079;DHT22;57451;52.496;13.456;2023-02-19T01:45:14;6.80;74.50
70079;DHT22;57451;52.496;13.456;2023-02-19T01:47:45;6.80;74.60
70079;DHT22;57451;52.496;13.456;2023-02-19T01:50:12;6.70;74.60
70079;DHT22;57451;52.496;13.456;2023-02-19T01:52:40;6.70;74.70
70079;DHT22;57451;52.496;13.456;2023-02-19T01:55:10;6.70;74.50
70079;DHT22;57451;52.496;13.456;2023-02-19T01:57:42;6.70;74.30
70079;DHT22;57451;52.496;13.456;2023-02-19T02:00:13;6.80;74.00
70079;DHT22;57451;52.496;13.456;2023-02-19T02:02:44;6.80;73.70
70079;DHT22;57451;52.496;13.456;2023-02-19T02:05:16;6.70;73.70
70079;DHT22;57451;52.496;13.456;2023-02-19T02:07:45;6.70;73.80
70079;DHT22;57451;52.496;13.456;2023-02-19T02:10:31;6.80;73.70
70079;DHT22;57451;52.496;13.456;2023-02-19T02:13:01;6.70;73.80
70079;DHT22;57451;52.496;13.456;2023-02-19T02:15:35;6.70;73.70
70079;DHT22;57451;52.496;13.456;2023-02-19T02:18:14;6.70;73.50
70079;DHT22;57451;52.496;13.456;2023-02-19T02:20:57;6.70;73.40
70079;DHT22;57451;52.496;13.456;2023-02-19T02:23:39;6.70;73.40
70079;DHT22;57451;52.496;13.456;2023-02-19T02:26:34;6.60;73.20
70079;DHT22;57451;52.496;13.456;2023-02-19T02:29:35;6.60;72.90
70079;DHT22;57451;52.496;13.456;2023-02-19T02:32:07;6.50;72.70
70079;DHT22;57451;52.496;13.456;2023-02-19T02:34:42;6.50;72.90
70079;DHT22;57451;52.496;13.456;2023-02-19T02:37:12;6.40;72.90
70079;DHT22;57451;52.496;13.456;2023-02-19T02:39:41;6.40;73.20
70079;DHT22;57451;52.496;13.456;2023-02-19T02:42:09;6.40;73.20
70079;DHT22;57451;52.496;13.456;2023-02-19T02:45:23;6.50;73.10
70079;DHT22;57451;52.496;13.456;2023-02-19T02:48:27;6.50;73.20
70079;DHT22;57451;52.496;13.456;2023-02-19T02:51:00;6.50;72.90
70079;DHT22;57451;52.496;13.456;2023-02-19T02:53:35;6.50;73.00
70079;DHT22;57451;52.496;13.456;2023-02-19T02:56:24;6.50;73.00
70079;DHT22;57451;52.496;13.456;2023-02-19T02:58:52;6.50;72.90
70079;DHT22;57451;52.496;13.456;2023-02-19T03:01:24;6.50;73.00
70079;DHT22;57451;52.496;13.456;2023-02-19T03:04:18;6.50;72.90
70079;DHT22;57451;52.496;13.456;2023-02-19T03:06:48;6.50;72.90
70079;DHT22;57451;52.496;13.456;2023-02-19T03:09:19;6.40;72.80
70079;DHT22;57451;52.496;13.456;2023-02-19T03:11:49;6.40;72.80
70079;DHT22;57451;52.496;13.456;2023-02-19T03:14:40;6.30;72.70
70079;DHT22;57451;52.496;13.456;2023-02-19T03:17:32;6.30;72.90
70079;DHT22;57451;52.496;13.456;2023-02-19T03:20:23;6.30;72.90
70079;DHT22;57451;52.496;13.456;2023-02-19T03:22:53;6.40;72.50
70079;DHT22;57451;52.496;13.456;2023-02-19T03:25:24;6.30;72.60
70079;DHT22;57451;52.496;13.456;2023-02-19T03:28:16;6.30;72.60
70079;DHT22;57451;52.496;13.456;2023-02-19T03:30:48;6.10;72.80
70079;DHT22;57451;52.496;13.456;2023-02-19T03:33:17;6.10;72.90
70079;DHT22;57451;52.496;13.456;2023-02-19T03:35:51;6.10;73.00
70079;DHT22;57451;52.496;13.456;2023-02-19T03:38:26;6.10;72.90
70079;DHT22;57451;52.496;13.456;2023-02-19T03:40:58;6.10;72.90
70079;DHT22;57451;52.496;13.456;2023-02-19T03:43:36;6.10;72.70
70079;DHT22;57451;52.496;13.456;2023-02-19T03:46:08;6.00;72.20
70079;DHT22;57451;52.496;13.456;2023-02-19T03:48:42;5.80;72.20
70079;DHT22;57451;52.496;13.456;2023-02-19T03:51:25;5.70;72.70
70079;DHT22;57451;52.496;13.456;2023-02-19T03:54:01;5.60;72.90
70079;DHT22;57451;52.496;13.456;2023-02-19T03:56:40;5.50;72.70
70079;DHT22;57451;52.496;13.456;2023-02-19T03:59:12;5.50;73.00
70079;DHT22;57451;52.496;13.456;2023-02-19T04:01:43;5.50;72.60
70079;DHT22;57451;52.496;13.456;2023-02-19T04:04:16;5.50;72.40
70079;DHT22;57451;52.496;13.456;2023-02-19T04:06:51;5.50;72.60
70079;DHT22;57451;52.496;13.456;2023-02-19T04:09:21;5.50;72.30
70079;DHT22;57451;52.496;13.456;2023-02-19T04:11:57;5.60;72.20
70079;DHT22;57451;52.496;13.456;2023-02-19T04:14:27;5.60;72.20
70079;DHT22;57451;52.496;13.456;2023-02-19T04:16:59;5.60;72.20
70079;DHT22;57451;52.496;13.456;2023-02-19T04:19:29;5.50;71.90
70079;DHT22;57451;52.496;13.456;2023-02-19T04:22:00;5.40;71.80
70079;DHT22;57451;52.496;13.456;2023-02-19T04:24:30;5.30;72.20
70079;DHT22;57451;52.496;13.456;2023-02-19T04:26:59;5.30;72.40
70079;DHT22;57451;52.496;13.456;2023-02-19T04:29:27;5.30;72.70
70079;DHT22;57451;52.496;13.456;2023-02-19T04:31:54;5.30;72.70
70079;DHT22;57451;52.496;13.456;2023-02-19T04:34:21;5.30;72.80
70079;DHT22;57451;52.496;13.456;2023-02-19T04:36:48;5.30;72.50
70079;DHT22;57451;52.496;13.456;2023-02-19T04:39:17;5.30;72.30
70079;DHT22;57451;52.496;13.456;2023-02-19T04:41:44;5.10;72.20
70079;DHT22;57451;52.496;13.456;2023-02-19T04:44:11;5.10;72.70
70079;DHT22;57451;52.496;13.456;2023-02-19T04:46:39;5.00;72.80
70079;DHT22;57451;52.496;13.456;2023-02-19T04:49:09;5.10;72.90
70079;DHT22;57451;52.496;13.456;2023-02-19T04:51:37;5.10;72.40
70079;DHT22;57451;52.496;13.456;2023-02-19T04:54:04;5.10;72.60
70079;DHT22;57451;52.496;13.456;2023-02-19T04:56:33;5.00;72.30
70079;DHT22;57451;52.496;13.456;2023-02-19T04:59:00;5.00;72.20
70079;DHT22;57451;52.496;13.456;2023-02-19T05:01:27;4.90;72.80
70079;DHT22;57451;52.496;13.456;2023-02-19T05:03:55;4.90;73.10
70079;DHT22;57451;52.496;13.456;2023-02-19T05:06:22;4.90;73.10
70079;DHT22;57451;52.496;13.456;2023-02-19T05:08:49;5.00;73.10
70079;DHT22;57451;52.496;13.456;2023-02-19T05:11:16;4.90;72.50
70079;DHT22;57451;52.496;13.456;2023-02-19T05:13:45;4.80;73.20
70079;DHT22;57451;52.496;13.456;2023-02-19T05:16:13;4.80;73.30
70079;DHT22;57451;52.496;13.456;2023-02-19T05:18:43;4.80;73.60
70079;DHT22;57451;52.496;13.456;2023-02-19T05:21:11;4.80;73.50
70079;DHT22;57451;52.496;13.456;2023-02-19T05:23:39;4.90;73.30
70079;DHT22;57451;52.496;13.456;2023-02-19T05:26:08;4.90;73.20
70079;DHT22;57451;52.496;13.456;2023-02-19T05:28:36;4.90;73.10
70079;DHT22;57451;52.496;13.456;2023-02-19T05:31:06;4.80;73.50
70079;DHT22;57451;52.496;13.456;2023-02-19T05:33:34;4.80;73.50
70079;DHT22;57451;52.496;13.456;2023-02-19T05:36:06;4.80;73.50
70079;DHT22;57451;52.496;13.456;2023-02-19T05:38:33;4.90;73.40
70079;DHT22;57451;52.496;13.456;2023-02-19T05:41:09;4.80;73.60
70079;DHT22;57451;52.496;13.456;2023-02-19T05:43:37;4.80;73.50
70079;DHT22;57451;52.496;13.456;2023-02-19T05:46:06;4.90;73.50
70079;DHT22;57451;52.496;13.456;2023-02-19T05:48:34;4.80;73.40
70079;DHT22;57451;52.496;13.456;2023-02-19T05:51:01;4.80;73.40
70079;DHT22;57451;52.496;13.456;2023-02-19T05:53:29;4.80;73.40
70079;DHT22;57451;52.496;13.456;2023-02-19T05:55:56;4.80;73.30
70079;DHT22;57451;52.496;13.456;2023-02-19T05:58:24;4.80;73.40
70079;DHT22;57451;52.496;13.456;2023-02-19T06:00:52;4.80;73.30
70079;DHT22;57451;52.496;13.456;2023-02-19T06:03:20;4.80;73.30
70079;DHT22;57451;52.496;13.456;2023-02-19T06:05:48;4.70;73.80
70079;DHT22;57451;52.496;13.456;2023-02-19T06:08:15;4.70;73.60
70079;DHT22;57451;52.496;13.456;2023-02-19T06:10:42;4.70;73.60
70079;DHT22;57451;52.496;13.456;2023-02-19T06:13:10;4.70;73.50
70079;DHT22;57451;52.496;13.456;2023-02-19T06:15:37;4.80;73.60
70079;DHT22;57451;52.496;13.456;2023-02-19T06:18:04;4.70;73.30
70079;DHT22;57451;52.496;13.456;2023-02-19T06:20:33;4.60;73.70
70079;DHT22;57451;52.496;13.456;2023-02-19T06:23:00;4.70;73.60
70079;DHT22;57451;52.496;13.456;2023-02-19T06:25:27;4.70;73.40
70079;DHT22;57451;52.496;13.456;2023-02-19T06:27:54;4.70;73.40
70079;DHT22;57451;52.496;13.456;2023-02-19T06:30:22;4.70;73.30
70079;DHT22;57451;52.496;13.456;2023-02-19T06:32:50;4.70;73.50
70079;DHT22;57451;52.496;13.456;2023-02-19T06:35:18;4.70;73.50
70079;DHT22;57451;52.496;13.456;2023-02-19T06:37:47;4.70;73.40
70079;DHT22;57451;52.496;13.456;2023-02-19T06:40:15;4.70;73.70
70079;DHT22;57451;52.496;13.456;2023-02-19T06:42:43;4.70;73.70
70079;DHT22;57451;52.496;13.456;2023-02-19T06:45:10;4.70;73.60
70079;DHT22;57451;52.496;13.456;2023-02-19T06:47:37;4.70;73.60
70079;DHT22;57451;52.496;13.456;2023-02-19T06:50:05;4.60;73.80
70079;DHT22;57451;52.496;13.456;2023-02-19T06:52:32;4.60;73.70
70079;DHT22;57451;52.496;13.456;2023-02-19T06:55:00;4.60;73.70
70079;DHT22;57451;52.496;13.456;2023-02-19T06:57:28;4.60;73.70
70079;DHT22;57451;52.496;13.456;2023-02-19T06:59:55;4.60;73.80
70079;DHT22;57451;52.496;13.456;2023-02-19T07:02:22;4.50;74.00
70079;DHT22;57451;52.496;13.456;2023-02-19T07:04:49;4.60;74.00
70079;DHT22;57451;52.496;13.456;2023-02-19T07:07:17;4.60;73.90
70079;DHT22;57451;52.496;13.456;2023-02-19T07:09:44;4.60;73.70
70079;DHT22;57451;52.496;13.456;2023-02-19T07:12:12;4.60;74.00
70079;DHT22;57451;52.496;13.456;2023-02-19T07:14:39;4.60;73.90
70079;DHT22;57451;52.496;13.456;2023-02-19T07:17:07;4.50;73.70
70079;DHT22;57451;52.496;13.456;2023-02-19T07:19:34;4.50;74.00
70079;DHT22;57451;52.496;13.456;2023-02-19T07:22:01;4.50;74.00
70079;DHT22;57451;52.496;13.456;2023-02-19T07:24:28;4.50;73.50
70079;DHT22;57451;52.496;13.456;2023-02-19T07:26:55;4.50;73.60
70079;DHT22;57451;52.496;13.456;2023-02-19T07:29:24;4.50;73.80
70079;DHT22;57451;52.496;13.456;2023-02-19T07:31:51;4.50;73.60
70079;DHT22;57451;52.496;13.456;2023-02-19T07:34:18;4.50;73.50
70079;DHT22;57451;52.496;13.456;2023-02-19T07:36:46;4.60;73.70
70079;DHT22;57451;52.496;13.456;2023-02-19T07:39:14;4.60;73.00
70079;DHT22;57451;52.496;13.456;2023-02-19T07:41:41;4.60;72.80
70079;DHT22;57451;52.496;13.456;2023-02-19T07:44:09;4.60;73.00
70079;DHT22;57451;52.496;13.456;2023-02-19T07:46:40;4.60;72.60
70079;DHT22;57451;52.496;13.456;2023-02-19T07:49:08;4.60;72.70
70079;DHT22;57451;52.496;13.456;2023-02-19T07:51:35;4.70;72.70
70079;DHT22;57451;52.496;13.456;2023-02-19T07:54:05;4.80;74.50
70079;DHT22;57451;52.496;13.456;2023-02-19T07:56:34;4.60;73.70
70079;DHT22;57451;52.496;13.456;2023-02-19T07:59:01;4.60;73.10
70079;DHT22;57451;52.496;13.456;2023-02-19T08:01:28;4.60;73.40
70079;DHT22;57451;52.496;13.456;2023-02-19T08:04:15;4.60;73.50
70079;DHT22;57451;52.496;13.456;2023-02-19T08:06:43;4.80;73.90
70079;DHT22;57451;52.496;13.456;2023-02-19T08:09:10;5.00;73.60
70079;DHT22;57451;52.496;13.456;2023-02-19T08:11:37;5.00;72.70
70079;DHT22;57451;52.496;13.456;2023-02-19T08:14:24;5.10;73.00
70079;DHT22;57451;52.496;13.456;2023-02-19T08:16:52;5.20;72.10
70079;DHT22;57451;52.496;13.456;2023-02-19T08:19:21;5.20;71.90
70079;DHT22;57451;52.496;13.456;2023-02-19T08:21:48;5.30;72.00
70079;DHT22;57451;52.496;13.456;2023-02-19T08:24:16;5.40;71.60
70079;DHT22;57451;52.496;13.456;2023-02-19T08:26:43;5.60;71.80
70079;DHT22;57451;52.496;13.456;2023-02-19T08:29:11;5.70;71.00
70079;DHT22;57451;52.496;13.456;2023-02-19T08:31:38;5.90;70.90
70079;DHT22;57451;52.496;13.456;2023-02-19T08:34:05;6.00;70.40
70079;DHT22;57451;52.496;13.456;2023-02-19T08:36:34;6.20;69.30
70079;DHT22;57451;52.496;13.456;2023-02-19T08:39:01;6.20;68.30
70079;DHT22;57451;52.496;13.456;2023-02-19T08:41:28;6.20;68.30
70079;DHT22;57451;52.496;13.456;2023-02-19T08:43:56;6.40;68.70
70079;DHT22;57451;52.496;13.456;2023-02-19T08:46:23;6.70;68.60
70079;DHT22;57451;52.496;13.456;2023-02-19T08:48:50;6.90;67.60
70079;DHT22;57451;52.496;13.456;2023-02-19T08:51:18;7.10;67.60
70079;DHT22;57451;52.496;13.456;2023-02-19T08:53:46;7.40;67.50
70079;DHT22;57451;52.496;13.456;2023-02-19T08:56:15;7.60;67.70
70079;DHT22;57451;52.496;13.456;2023-02-19T08:58:43;7.70;65.20
70079;DHT22;57451;52.496;13.456;2023-02-19T09:01:12;7.90;65.40
70079;DHT22;57451;52.496;13.456;2023-02-19T09:03:41;7.80;63.80
70079;DHT22;57451;52.496;13.456;2023-02-19T09:06:13;7.90;62.40
70079;DHT22;57451;52.496;13.456;2023-02-19T09:08:40;7.90;62.70
70079;DHT22;57451;52.496;13.456;2023-02-19T09:11:09;8.10;63.20
70079;DHT22;57451;52.496;13.456;2023-02-19T09:13:37;8.30;63.60
70079;DHT22;57451;52.496;13.456;2023-02-19T09:16:04;8.50;62.40
70079;DHT22;57451;52.496;13.456;2023-02-19T09:18:32;8.50;63.00
70079;DHT22;57451;52.496;13.456;2023-02-19T09:21:00;8.60;61.30
70079;DHT22;57451;52.496;13.456;2023-02-19T09:23:28;8.60;61.60
70079;DHT22;57451;52.496;13.456;2023-02-19T09:25:58;8.60;62.30
70079;DHT22;57451;52.496;13.456;2023-02-19T09:28:27;8.60;60.20
70079;DHT22;57451;52.496;13.456;2023-02-19T09:30:54;8.50;62.20
70079;DHT22;57451;52.496;13.456;2023-02-19T09:33:22;8.60;61.50
70079;DHT22;57451;52.496;13.456;2023-02-19T09:35:49;8.50;61.70
70079;DHT22;57451;52.496;13.456;2023-02-19T09:38:16;8.50;61.30
70079;DHT22;57451;52.496;13.456;2023-02-19T09:40:43;8.50;61.20
70079;DHT22;57451;52.496;13.456;2023-02-19T09:43:15;8.40;60.90
70079;DHT22;57451;52.496;13.456;2023-02-19T09:45:45;8.40;60.60
70079;DHT22;57451;52.496;13.456;2023-02-19T09:48:12;8.20;58.60
70079;DHT22;57451;52.496;13.456;2023-02-19T09:50:44;8.00;59.90
70079;DHT22;57451;52.496;13.456;2023-02-19T09:53:14;8.00;62.50
70079;DHT22;57451;52.496;13.456;2023-02-19T09:55:43;8.20;61.90
70079;DHT22;57451;52.496;13.456;2023-02-19T09:58:21;8.30;62.30
70079;DHT22;57451;52.496;13.456;2023-02-19T10:00:54;8.50;60.60
70079;DHT22;57451;52.496;13.456;2023-02-19T10:03:24;8.60;59.30
70079;DHT22;57451;52.496;13.456;2023-02-19T10:05:58;8.80;60.90
70079;DHT22;57451;52.496;13.456;2023-02-19T10:08:25;9.10;60.10
70079;DHT22;57451;52.496;13.456;2023-02-19T10:10:53;9.30;59.60
70079;DHT22;57451;52.496;13.456;2023-02-19T10:13:22;9.20;58.40
70079;DHT22;57451;52.496;13.456;2023-02-19T10:15:51;9.30;56.50
70079;DHT22;57451;52.496;13.456;2023-02-19T10:18:23;9.40;58.00
70079;DHT22;57451;52.496;13.456;2023-02-19T10:20:52;9.60;58.90
70079;DHT22;57451;52.496;13.456;2023-02-19T10:23:19;9.80;58.30
70079;DHT22;57451;52.496;13.456;2023-02-19T10:25:49;10.10;57.20
70079;DHT22;57451;52.496;13.456;2023-02-19T10:28:19;10.20;55.50
70079;DHT22;57451;52.496;13.456;2023-02-19T10:30:52;10.20;54.10
70079;DHT22;57451;52.496;13.456;2023-02-19T10:33:21;9.70;53.40
70079;DHT22;57451;52.496;13.456;2023-02-19T10:35:52;10.00;55.60
70079;DHT22;57451;52.496;13.456;2023-02-19T10:38:23;10.30;56.20
70079;DHT22;57451;52.496;13.456;2023-02-19T10:41:00;10.70;54.60
70079;DHT22;57451;52.496;13.456;2023-02-19T10:43:30;10.90;54.50
70079;DHT22;57451;52.496;13.456;2023-02-19T10:46:02;11.10;54.50
70079;DHT22;57451;52.496;13.456;2023-02-19T10:48:34;11.30;52.80
70079;DHT22;57451;52.496;13.456;2023-02-19T10:51:06;11.40;52.40
70079;DHT22;57451;52.496;13.456;2023-02-19T10:53:45;11.40;52.40
70079;DHT22;57451;52.496;13.456;2023-02-19T10:56:15;11.50;50.70
70079;DHT22;57451;52.496;13.456;2023-02-19T10:58:43;11.50;49.00
70079;DHT22;57451;52.496;13.456;2023-02-19T11:01:14;11.50;51.50
70079;DHT22;57451;52.496;13.456;2023-02-19T11:03:43;11.60;52.20
70079;DHT22;57451;52.496;13.456;2023-02-19T11:06:12;11.70;50.60
70079;DHT22;57451;52.496;13.456;2023-02-19T11:08:52;11.90;51.60
70079;DHT22;57451;52.496;13.456;2023-02-19T11:11:35;12.10;49.70
70079;DHT22;57451;52.496;13.456;2023-02-19T11:14:10;11.90;47.60
70079;DHT22;57451;52.496;13.456;2023-02-19T11:16:41;11.90;48.50
70079;DHT22;57451;52.496;13.456;2023-02-19T11:19:29;12.00;48.80
70079;DHT22;57451;52.496;13.456;2023-02-19T11:21:57;12.00;47.70
70079;DHT22;57451;52.496;13.456;2023-02-19T11:24:29;11.80;49.80
70079;DHT22;57451;52.496;13.456;2023-02-19T11:26:57;11.90;50.20
70079;DHT22;57451;52.496;13.456;2023-02-19T11:29:25;12.10;48.70
70079;DHT22;57451;52.496;13.456;2023-02-19T11:31:55;11.90;47.80
70079;DHT22;57451;52.496;13.456;2023-02-19T11:34:27;11.90;46.90
70079;DHT22;57451;52.496;13.456;2023-02-19T11:37:10;11.80;48.70
70079;DHT22;57451;52.496;13.456;2023-02-19T11:39:40;11.90;47.60
70079;DHT22;57451;52.496;13.456;2023-02-19T11:42:29;12.00;47.30
70079;DHT22;57451;52.496;13.456;2023-02-19T11:45:10;12.00;46.10
70079;DHT22;57451;52.496;13.456;2023-02-19T11:50:45;12.20;46.20
70079;DHT22;57451;52.496;13.456;2023-02-19T11:53:19;12.30;47.80
70079;DHT22;57451;52.496;13.456;2023-02-19T11:55:55;12.40;46.20
70079;DHT22;57451;52.496;13.456;2023-02-19T11:58:44;12.40;47.00
70079;DHT22;57451;52.496;13.456;2023-02-19T12:01:22;12.60;46.30
70079;DHT22;57451;52.496;13.456;2023-02-19T12:04:01;12.70;44.70
70079;DHT22;57451;52.496;13.456;2023-02-19T12:06:44;12.60;45.00
70079;DHT22;57451;52.496;13.456;2023-02-19T12:09:34;12.60;44.90
70079;DHT22;57451;52.496;13.456;2023-02-19T12:12:15;12.80;45.30
70079;DHT22;57451;52.496;13.456;2023-02-19T12:17:59;12.80;41.60
70079;DHT22;57451;52.496;13.456;2023-02-19T12:20:35;12.20;41.90
70079;DHT22;57451;52.496;13.456;2023-02-19T12:23:37;11.90;43.60
70079;DHT22;57451;52.496;13.456;2023-02-19T12:26:18;11.80;44.20
70079;DHT22;57451;52.496;13.456;2023-02-19T12:29:06;11.50;44.10
70079;DHT22;57451;52.496;13.456;2023-02-19T12:32:02;11.20;44.30
70079;DHT22;57451;52.496;13.456;2023-02-19T12:34:44;11.00;44.60
70079;DHT22;57451;52.496;13.456;2023-02-19T12:37:21;10.80;46.30
70079;DHT22;57451;52.496;13.456;2023-02-19T12:40:00;11.00;46.30
70079;DHT22;57451;52.496;13.456;2023-02-19T12:42:39;11.00;44.70
70079;DHT22;57451;52.496;13.456;2023-02-19T12:45:16;10.60;46.00
70079;DHT22;57451;52.496;13.456;2023-02-19T12:47:58;10.50;45.00
70079;DHT22;57451;52.496;13.456;2023-02-19T12:50:26;10.40;46.30
70079;DHT22;57451;52.496;13.456;2023-02-19T12:52:58;10.40;46.00
70079;DHT22;57451;52.496;13.456;2023-02-19T12:55:33;10.10;45.90
70079;DHT22;57451;52.496;13.456;2023-02-19T12:58:03;9.80;45.50
70079;DHT22;57451;52.496;13.456;2023-02-19T13:00:36;9.70;47.00
70079;DHT22;57451;52.496;13.456;2023-02-19T13:03:11;9.40;46.80
70079;DHT22;57451;52.496;13.456;2023-02-19T13:05:46;9.30;48.20
70079;DHT22;57451;52.496;13.456;2023-02-19T13:08:21;9.30;47.70
70079;DHT22;57451;52.496;13.456;2023-02-19T13:10:55;9.30;48.00
70079;DHT22;57451;52.496;13.456;2023-02-19T13:13:27;9.20;48.00
70079;DHT22;57451;52.496;13.456;2023-02-19T13:15:59;9.10;48.40
70079;DHT22;57451;52.496;13.456;2023-02-19T13:18:33;9.00;47.60
70079;DHT22;57451;52.496;13.456;2023-02-19T13:21:04;9.10;47.70
70079;DHT22;57451;52.496;13.456;2023-02-19T13:23:35;9.00;47.80
70079;DHT22;57451;52.496;13.456;2023-02-19T13:26:33;8.90;47.00
70079;DHT22;57451;52.496;13.456;2023-02-19T13:29:14;8.90;48.50
70079;DHT22;57451;52.496;13.456;2023-02-19T13:32:01;9.00;48.10
70079;DHT22;57451;52.496;13.456;2023-02-19T13:34:42;9.10;49.70
70079;DHT22;57451;52.496;13.456;2023-02-19T13:37:11;9.30;48.30
70079;DHT22;57451;52.496;13.456;2023-02-19T13:39:45;9.30;47.60
70079;DHT22;57451;52.496;13.456;2023-02-19T13:42:24;9.10;47.50
70079;DHT22;57451;52.496;13.456;2023-02-19T13:44:52;9.30;49.00
70079;DHT22;57451;52.496;13.456;2023-02-19T13:47:44;9.60;48.90
70079;DHT22;57451;52.496;13.456;2023-02-19T13:50:18;10.00;49.20
70079;DHT22;57451;52.496;13.456;2023-02-19T13:52:46;10.40;47.80
70079;DHT22;57451;52.496;13.456;2023-02-19T13:55:42;10.80;48.80
70079;DHT22;57451;52.496;13.456;2023-02-19T13:58:36;11.40;48.20
70079;DHT22;57451;52.496;13.456;2023-02-19T14:01:06;11.80;45.70
70079;DHT22;57451;52.496;13.456;2023-02-19T14:03:46;11.90;45.30
70079;DHT22;57451;52.496;13.456;2023-02-19T14:06:13;12.30;42.90
70079;DHT22;57451;52.496;13.456;2023-02-19T14:08:52;11.80;42.20
70079;DHT22;57451;52.496;13.456;2023-02-19T14:14:33;11.50;43.20
70079;DHT22;57451;52.496;13.456;2023-02-19T14:17:03;11.30;41.60
70079;DHT22;57451;52.496;13.456;2023-02-19T14:19:47;11.30;42.60
70079;DHT22;57451;52.496;13.456;2023-02-19T14:22:47;11.20;43.40
70079;DHT22;57451;52.496;13.456;2023-02-19T14:25:44;11.20;43.10
70079;DHT22;57451;52.496;13.456;2023-02-19T14:28:17;10.70;43.10
70079;DHT22;57451;52.496;13.456;2023-02-19T14:30:49;10.60;43.70
70079;DHT22;57451;52.496;13.456;2023-02-19T14:33:19;10.20;43.50
70079;DHT22;57451;52.496;13.456;2023-02-19T14:35:51;10.00;44.20
70079;DHT22;57451;52.496;13.456;2023-02-19T14:38:22;9.80;44.90
70079;DHT22;57451;52.496;13.456;2023-02-19T14:40:52;9.90;44.60
70079;DHT22;57451;52.496;13.456;2023-02-19T14:43:22;10.00;44.80
70079;DHT22;57451;52.496;13.456;2023-02-19T14:45:54;10.10;45.60
70079;DHT22;57451;52.496;13.456;2023-02-19T14:48:25;10.40;45.90
70079;DHT22;57451;52.496;13.456;2023-02-19T14:50:59;10.40;44.10
70079;DHT22;57451;52.496;13.456;2023-02-19T14:53:31;10.60;44.40
70079;DHT22;57451;52.496;13.456;2023-02-19T14:56:01;10.70;44.40
70079;DHT22;57451;52.496;13.456;2023-02-19T14:58:31;10.70;44.10
70079;DHT22;57451;52.496;13.456;2023-02-19T15:01:00;10.80;43.80
70079;DHT22;57451;52.496;13.456;2023-02-19T15:03:33;10.80;43.20
70079;DHT22;57451;52.496;13.456;2023-02-19T15:06:04;10.50;44.00
70079;DHT22;57451;52.496;13.456;2023-02-19T15:08:36;10.30;44.60
70079;DHT22;57451;52.496;13.456;2023-02-19T15:11:08;10.30;44.80
70079;DHT22;57451;52.496;13.456;2023-02-19T15:13:38;10.40;44.90
70079;DHT22;57451;52.496;13.456;2023-02-19T15:16:17;10.30;45.30
70079;DHT22;57451;52.496;13.456;2023-02-19T15:18:45;10.30;45.10
70079;DHT22;57451;52.496;13.456;2023-02-19T15:21:21;10.20;44.20
70079;DHT22;57451;52.496;13.456;2023-02-19T15:23:50;10.20;44.20
70079;DHT22;57451;52.496;13.456;2023-02-19T15:26:20;10.00;43.60
70079;DHT22;57451;52.496;13.456;2023-02-19T15:28:56;9.90;43.40
70079;DHT22;57451;52.496;13.456;2023-02-19T15:31:26;9.70;43.80
70079;DHT22;57451;52.496;13.456;2023-02-19T15:33:53;9.60;44.00
70079;DHT22;57451;52.496;13.456;2023-02-19T15:36:25;9.70;45.20
70079;DHT22;57451;52.496;13.456;2023-02-19T15:38:55;9.70;44.60
70079;DHT22;57451;52.496;13.456;2023-02-19T15:41:26;9.60;44.50
70079;DHT22;57451;52.496;13.456;2023-02-19T15:43:59;9.50;45.00
70079;DHT22;57451;52.496;13.456;2023-02-19T15:46:29;9.40;44.10
70079;DHT22;57451;52.496;13.456;2023-02-19T15:49:00;9.30;44.80
70079;DHT22;57451;52.496;13.456;2023-02-19T15:51:32;9.10;44.40
70079;DHT22;57451;52.496;13.456;2023-02-19T15:54:06;9.00;43.70
70079;DHT22;57451;52.496;13.456;2023-02-19T15:56:38;8.80;44.00
70079;DHT22;57451;52.496;13.456;2023-02-19T15:59:13;8.60;45.10
70079;DHT22;57451;52.496;13.456;2023-02-19T16:01:43;8.50;44.90
70079;DHT22;57451;52.496;13.456;2023-02-19T16:04:13;8.20;44.90
70079;DHT22;57451;52.496;13.456;2023-02-19T16:06:54;8.10;46.00